createdAt,value
2023-05-19T00:01:31.329Z,13.91
2023-05-19T00:04:21.412Z,13.91
2023-05-19T00:07:12.294Z,13.92
2023-05-19T00:10:01.009Z,13.89
2023-05-19T00:12:50.558Z,13.89
2023-05-19T00:15:41.671Z,13.90
2023-05-19T00:18:31.298Z,13.89
2023-05-19T00:21:21.191Z,13.84
2023-05-19T00:24:09.268Z,13.89
2023-05-19T00:26:57.239Z,13.80
2023-05-19T00:29:45.277Z,13.78
2023-05-19T00:32:33.268Z,13.74
2023-05-19T00:35:21.865Z,13.56
2023-05-19T00:38:11.197Z,13.82
2023-05-19T00:40:59.503Z,13.70
2023-05-19T00:43:47.675Z,13.69
2023-05-19T00:46:35.729Z,13.79
2023-05-19T00:49:23.738Z,13.76
2023-05-19T00:52:11.751Z,13.74
2023-05-19T00:55:01.203Z,13.23
2023-05-19T00:57:50.997Z,13.72
2023-05-19T01:00:39.842Z,13.76
2023-05-19T01:03:31.160Z,13.68
2023-05-19T01:06:20.993Z,13.65
2023-05-19T01:09:09.124Z,13.61
2023-05-19T01:11:58.685Z,13.63
2023-05-19T01:14:46.723Z,13.69
2023-05-19T01:17:43.028Z,13.60
2023-05-19T01:20:38.573Z,13.62
2023-05-19T01:23:38.084Z,13.64
2023-05-19T01:26:45.834Z,13.76
2023-05-19T01:29:43.842Z,13.58
2023-05-19T01:32:34.990Z,13.62
2023-05-19T01:35:25.127Z,13.58
2023-05-19T01:38:17.723Z,13.66
2023-05-19T01:41:07.935Z,13.70
2023-05-19T01:43:57.130Z,13.60
2023-05-19T01:46:45.516Z,13.61
2023-05-19T01:49:35.072Z,13.57
2023-05-19T01:52:23.054Z,13.57
2023-05-19T01:55:11.490Z,13.55
2023-05-19T01:58:08.261Z,13.51
2023-05-19T02:01:04.411Z,13.44
2023-05-19T02:04:06.659Z,13.55
2023-05-19T02:07:03.279Z,13.46
2023-05-19T02:09:56.264Z,13.40
2023-05-19T02:12:47.122Z,13.61
2023-05-19T02:15:42.143Z,13.62
2023-05-19T02:18:31.075Z,13.63
2023-05-19T02:21:19.059Z,13.61
2023-05-19T02:24:09.054Z,13.67
2023-05-19T02:26:57.209Z,13.86
2023-05-19T02:29:45.259Z,13.64
2023-05-19T02:32:33.407Z,13.48
2023-05-19T02:35:21.753Z,13.69
2023-05-19T02:38:09.952Z,13.67
2023-05-19T02:40:59.439Z,13.66
2023-05-19T02:43:47.402Z,13.62
2023-05-19T02:46:35.536Z,13.78
2023-05-19T02:49:23.514Z,13.85
2023-05-19T02:52:12.144Z,13.74
2023-05-19T02:55:00.145Z,13.77
2023-05-19T02:57:49.487Z,13.74
2023-05-19T03:00:37.437Z,13.72
2023-05-19T03:03:26.042Z,13.95
2023-05-19T03:06:15.676Z,13.71
2023-05-19T03:09:03.750Z,14.43
2023-05-19T03:11:51.729Z,13.83
2023-05-19T03:14:41.267Z,13.96
2023-05-19T03:17:33.880Z,13.79
2023-05-19T03:20:22.020Z,13.89
2023-05-19T03:23:10.294Z,13.72
2023-05-19T03:25:58.221Z,13.59
2023-05-19T03:28:46.233Z,13.68
2023-05-19T03:31:35.668Z,13.31
2023-05-19T03:34:23.670Z,13.65
2023-05-19T03:37:12.979Z,13.52
2023-05-19T03:40:01.147Z,13.40
2023-05-19T03:42:49.289Z,13.56
2023-05-19T03:45:37.291Z,13.47
2023-05-19T03:48:26.876Z,13.48
2023-05-19T03:51:14.945Z,13.57
2023-05-19T03:54:02.888Z,13.31
2023-05-19T03:56:50.992Z,13.50
2023-05-19T03:59:41.356Z,13.56
2023-05-19T04:02:29.458Z,13.62
2023-05-19T04:05:18.926Z,13.70
2023-05-19T04:08:07.261Z,13.80
2023-05-19T04:10:55.245Z,13.73
2023-05-19T04:13:45.095Z,13.79
2023-05-19T04:16:33.785Z,13.73
2023-05-19T04:19:21.997Z,13.73
2023-05-19T04:22:11.413Z,13.84
2023-05-19T04:25:00.267Z,13.87
2023-05-19T04:27:48.839Z,13.83
2023-05-19T04:30:37.074Z,13.84
2023-05-19T04:33:25.158Z,13.98
2023-05-19T04:36:13.868Z,14.04
2023-05-19T04:39:06.383Z,14.04
2023-05-19T04:41:54.904Z,14.15
2023-05-19T04:44:42.940Z,14.11
2023-05-19T04:47:30.965Z,14.25
2023-05-19T04:50:19.126Z,14.25
2023-05-19T04:53:07.100Z,14.31
2023-05-19T04:55:56.815Z,14.46
2023-05-19T04:58:45.177Z,14.46
2023-05-19T05:01:33.955Z,14.51
2023-05-19T05:04:22.241Z,14.42
2023-05-19T05:07:10.435Z,14.20
2023-05-19T05:09:58.434Z,14.34
2023-05-19T05:12:48.590Z,14.32
2023-05-19T05:15:37.080Z,14.32
2023-05-19T05:18:25.536Z,14.47
2023-05-19T05:21:14.236Z,14.35
2023-05-19T05:24:03.951Z,14.53
2023-05-19T05:26:52.505Z,14.54
2023-05-19T05:29:41.919Z,14.56
2023-05-19T05:32:30.156Z,14.66
2023-05-19T05:35:18.394Z,14.70
2023-05-19T05:38:06.595Z,14.66
2023-05-19T05:40:54.595Z,14.75
2023-05-19T05:43:42.593Z,14.83
2023-05-19T05:46:33.954Z,14.84
2023-05-19T05:49:22.481Z,14.83
2023-05-19T05:52:13.380Z,14.84
2023-05-19T05:55:02.022Z,14.85
2023-05-19T05:57:50.662Z,14.93
2023-05-19T06:00:38.937Z,15.10
2023-05-19T06:03:28.323Z,15.22
2023-05-19T06:06:16.423Z,15.26
2023-05-19T06:09:04.411Z,15.45
2023-05-19T06:11:52.457Z,15.67
2023-05-19T06:14:40.661Z,16.07
2023-05-19T06:17:28.674Z,15.97
2023-05-19T06:20:20.027Z,15.83
2023-05-19T06:23:07.991Z,16.02
2023-05-19T06:25:56.136Z,16.25
2023-05-19T06:28:44.151Z,16.24
2023-05-19T06:31:33.494Z,16.41
2023-05-19T06:34:21.751Z,16.37
2023-05-19T06:37:11.314Z,16.34
2023-05-19T06:39:59.336Z,16.30
2023-05-19T06:42:47.407Z,16.28
2023-05-19T06:45:35.386Z,16.24
2023-05-19T06:48:23.418Z,16.39
2023-05-19T06:51:11.420Z,16.33
2023-05-19T06:54:00.814Z,16.31
2023-05-19T06:56:48.821Z,16.33
2023-05-19T06:59:37.595Z,16.48
2023-05-19T07:02:25.689Z,16.67
2023-05-19T07:05:13.704Z,16.79
2023-05-19T07:08:01.742Z,16.83
2023-05-19T07:10:51.159Z,16.85
2023-05-19T07:13:39.175Z,16.81
2023-05-19T07:16:27.210Z,17.12
2023-05-19T07:19:15.383Z,17.19
2023-05-19T07:22:03.436Z,16.51
2023-05-19T07:24:51.476Z,17.64
2023-05-19T07:27:40.945Z,17.22
2023-05-19T07:30:29.673Z,17.61
2023-05-19T07:33:17.801Z,17.75
2023-05-19T07:36:06.062Z,17.94
2023-05-19T07:38:54.030Z,18.12
2023-05-19T07:41:42.031Z,18.23
2023-05-19T07:44:32.175Z,18.26
2023-05-19T07:47:20.147Z,18.24
2023-05-19T07:50:09.022Z,18.36
2023-05-19T07:52:57.540Z,18.33
2023-05-19T07:55:45.612Z,18.37
2023-05-19T07:58:33.526Z,18.36
2023-05-19T08:01:22.880Z,18.56
2023-05-19T08:04:13.192Z,18.62
2023-05-19T08:07:01.358Z,18.53
2023-05-19T08:09:49.360Z,18.60
2023-05-19T08:12:37.401Z,18.84
2023-05-19T08:15:25.468Z,19.03
2023-05-19T08:18:14.880Z,19.18
2023-05-19T08:21:02.878Z,19.09
2023-05-19T08:23:51.308Z,19.05
2023-05-19T08:26:39.383Z,19.10
2023-05-19T08:29:27.403Z,19.21
2023-05-19T08:32:15.580Z,19.19
2023-05-19T08:35:05.454Z,19.30
2023-05-19T08:37:53.582Z,19.25
2023-05-19T08:40:43.015Z,19.34
2023-05-19T08:43:31.144Z,19.30
2023-05-19T08:46:19.215Z,19.29
2023-05-19T08:49:14.626Z,19.41
2023-05-19T08:52:16.393Z,19.48
2023-05-19T08:55:11.082Z,19.72
2023-05-19T08:57:59.325Z,19.76
2023-05-19T09:00:48.601Z,19.78
2023-05-19T09:03:38.521Z,19.90
2023-05-19T09:06:27.614Z,19.63
2023-05-19T09:09:17.422Z,19.40
2023-05-19T09:12:05.678Z,19.43
2023-05-19T09:14:54.236Z,19.53
2023-05-19T09:17:43.276Z,19.72
2023-05-19T09:20:32.035Z,19.54
2023-05-19T09:23:21.052Z,19.67
2023-05-19T09:26:10.911Z,19.78
2023-05-19T09:28:59.616Z,19.73
2023-05-19T09:31:51.860Z,20.07
2023-05-19T09:34:42.816Z,19.67
2023-05-19T09:37:31.120Z,20.09
2023-05-19T09:40:19.276Z,19.84
2023-05-19T09:43:09.716Z,19.66
2023-05-19T09:46:01.874Z,19.54
2023-05-19T09:48:50.720Z,19.47
2023-05-19T09:51:38.877Z,19.42
2023-05-19T09:54:29.703Z,19.66
2023-05-19T09:57:17.919Z,19.95
2023-05-19T10:00:14.326Z,19.74
2023-05-19T10:03:06.325Z,19.55
2023-05-19T10:05:54.907Z,19.41
2023-05-19T10:08:43.785Z,19.37
2023-05-19T10:11:32.568Z,19.40
2023-05-19T10:14:23.451Z,19.21
2023-05-19T10:17:14.587Z,19.44
2023-05-19T10:20:02.645Z,19.78
2023-05-19T10:22:50.962Z,19.80
2023-05-19T10:25:39.730Z,19.72
2023-05-19T10:28:36.253Z,19.62
2023-05-19T10:31:25.720Z,19.53
2023-05-19T10:34:37.487Z,19.60
2023-05-19T10:37:35.811Z,19.98
2023-05-19T10:40:29.712Z,20.15
2023-05-19T10:43:37.039Z,20.04
2023-05-19T10:46:26.418Z,19.86
2023-05-19T10:49:22.930Z,19.88
2023-05-19T10:52:23.111Z,19.87
2023-05-19T10:55:15.809Z,19.76
2023-05-19T10:58:03.926Z,19.51
2023-05-19T11:01:01.936Z,20.23
2023-05-19T11:03:52.356Z,20.55
2023-05-19T11:06:41.906Z,20.49
2023-05-19T11:12:24.672Z,20.98
2023-05-19T11:15:14.735Z,20.98
2023-05-19T11:18:03.449Z,20.98
2023-05-19T11:20:59.248Z,20.87
2023-05-19T11:23:48.682Z,21.28
2023-05-19T11:26:43.715Z,21.45
2023-05-19T11:29:34.722Z,21.25
2023-05-19T11:32:23.838Z,21.03
2023-05-19T11:35:12.205Z,21.13
2023-05-19T11:38:00.807Z,21.32
2023-05-19T11:40:50.914Z,21.44
2023-05-19T11:43:38.968Z,21.64
2023-05-19T11:46:27.019Z,21.47
2023-05-19T11:49:16.218Z,21.42
2023-05-19T11:52:05.228Z,21.53
2023-05-19T11:54:53.316Z,21.13
2023-05-19T11:57:56.057Z,21.37
2023-05-19T12:00:51.747Z,21.40
2023-05-19T12:03:39.875Z,21.38
2023-05-19T12:06:28.208Z,21.55
2023-05-19T12:09:16.631Z,21.51
2023-05-19T12:12:05.068Z,21.61
2023-05-19T12:14:54.519Z,21.74
2023-05-19T12:17:42.533Z,21.66
2023-05-19T12:20:32.657Z,21.62
2023-05-19T12:23:21.336Z,21.52
2023-05-19T12:26:09.720Z,21.53
2023-05-19T12:28:57.674Z,21.51
2023-05-19T12:31:49.366Z,21.57
2023-05-19T12:34:38.477Z,21.35
2023-05-19T12:37:28.034Z,21.69
2023-05-19T12:40:17.653Z,21.93
2023-05-19T12:43:06.854Z,21.88
2023-05-19T12:45:55.147Z,21.65
2023-05-19T12:48:45.136Z,21.90
2023-05-19T12:51:33.132Z,21.79
2023-05-19T12:54:22.310Z,21.62
2023-05-19T12:57:12.211Z,21.49
2023-05-19T13:00:06.982Z,21.01
2023-05-19T13:03:01.558Z,20.11
2023-05-19T13:05:52.208Z,19.47
2023-05-19T13:08:40.857Z,19.27
2023-05-19T13:11:29.239Z,18.83
2023-05-19T13:14:18.675Z,18.64
2023-05-19T13:17:06.797Z,18.41
2023-05-19T13:19:54.860Z,18.27
2023-05-19T13:22:44.283Z,18.31
2023-05-19T13:25:33.992Z,18.30
2023-05-19T13:28:21.980Z,18.07
2023-05-19T13:31:09.991Z,18.40
2023-05-19T13:33:58.076Z,18.36
2023-05-19T13:36:48.237Z,17.90
2023-05-19T13:39:37.767Z,18.08
2023-05-19T13:42:26.054Z,18.80
2023-05-19T13:45:14.083Z,18.38
2023-05-19T13:48:02.232Z,18.26
2023-05-19T13:50:52.524Z,18.00
2023-05-19T13:53:41.299Z,18.70
2023-05-19T13:56:31.640Z,19.09
2023-05-19T13:59:21.419Z,18.93
2023-05-19T14:02:09.589Z,18.66
2023-05-19T14:04:57.645Z,18.36
2023-05-19T14:07:46.402Z,18.63
2023-05-19T14:10:34.566Z,18.42
2023-05-19T14:16:15.341Z,18.53
2023-05-19T14:19:03.412Z,18.33
2023-05-19T14:21:51.767Z,18.54
2023-05-19T14:24:39.732Z,18.51
2023-05-19T14:27:27.698Z,18.47
2023-05-19T14:30:17.093Z,18.84
2023-05-19T14:33:05.311Z,18.66
2023-05-19T14:35:54.080Z,18.56
2023-05-19T14:38:42.283Z,18.48
2023-05-19T14:41:30.242Z,18.62
2023-05-19T14:44:18.190Z,18.58
2023-05-19T14:47:08.493Z,18.56
2023-05-19T14:49:56.642Z,18.53
2023-05-19T14:52:44.559Z,18.50
2023-05-19T14:55:32.599Z,18.55
2023-05-19T14:58:28.878Z,18.47
2023-05-19T15:01:17.464Z,18.47
2023-05-19T15:04:06.928Z,18.60
2023-05-19T15:07:05.858Z,18.55
2023-05-19T15:09:57.683Z,18.42
2023-05-19T15:12:46.661Z,18.52
2023-05-19T15:15:34.666Z,18.51
2023-05-19T15:18:22.843Z,18.64
2023-05-19T15:21:12.225Z,18.69
2023-05-19T15:24:00.160Z,18.67
2023-05-19T15:26:48.309Z,18.53
2023-05-19T15:29:36.601Z,18.45
2023-05-19T15:32:24.591Z,18.45
2023-05-19T15:35:12.558Z,18.47
2023-05-19T15:38:06.131Z,18.36
2023-05-19T15:40:54.137Z,18.25
2023-05-19T15:43:42.601Z,18.43
2023-05-19T15:46:30.953Z,18.37
2023-05-19T15:49:19.057Z,18.44
2023-05-19T15:52:07.702Z,18.40
2023-05-19T15:54:59.069Z,18.42
2023-05-19T15:57:47.086Z,18.42
2023-05-19T16:00:35.224Z,18.44
2023-05-19T16:03:23.535Z,18.49
2023-05-19T16:06:11.557Z,18.49
2023-05-19T16:08:59.550Z,18.35
2023-05-19T16:11:48.946Z,18.41
2023-05-19T16:14:37.925Z,18.44
2023-05-19T16:17:26.158Z,18.52
2023-05-19T16:20:14.674Z,18.32
2023-05-19T16:23:03.310Z,18.55
2023-05-19T16:25:51.502Z,18.44
2023-05-19T16:28:40.877Z,18.48
2023-05-19T16:31:28.801Z,18.54
2023-05-19T16:34:17.220Z,18.31
2023-05-19T16:37:05.592Z,18.40
2023-05-19T16:39:53.572Z,18.39
2023-05-19T16:42:41.602Z,18.36
2023-05-19T16:45:31.063Z,18.18
2023-05-19T16:48:18.951Z,18.17
2023-05-19T16:51:06.682Z,18.14
2023-05-19T16:53:54.581Z,18.18
2023-05-19T16:56:42.263Z,18.17
2023-05-19T16:59:30.050Z,18.15
2023-05-19T17:02:19.168Z,18.15
2023-05-19T17:05:07.438Z,18.12
2023-05-19T17:07:55.074Z,18.05
2023-05-19T17:10:42.817Z,18.00
2023-05-19T17:13:33.784Z,17.90
2023-05-19T17:16:24.670Z,18.01
2023-05-19T17:19:13.933Z,17.89
2023-05-19T17:22:01.686Z,17.97
2023-05-19T17:24:49.319Z,17.98
2023-05-19T17:27:37.091Z,17.94
2023-05-19T17:30:24.782Z,17.86
2023-05-19T17:33:15.559Z,17.91
2023-05-19T17:36:05.618Z,17.71
2023-05-19T17:38:53.367Z,17.80
2023-05-19T17:41:41.125Z,17.78
2023-05-19T17:44:28.862Z,17.80
2023-05-19T17:47:16.522Z,17.68
2023-05-19T17:50:04.390Z,17.65
2023-05-19T17:52:56.257Z,17.78
2023-05-19T17:55:50.865Z,17.62
2023-05-19T17:58:39.037Z,17.68
2023-05-19T18:01:28.973Z,17.61
2023-05-19T18:04:17.347Z,17.60
2023-05-19T18:07:08.039Z,17.45
2023-05-19T18:09:57.997Z,17.76
2023-05-19T18:12:46.022Z,17.44
2023-05-19T18:15:33.685Z,17.56
2023-05-19T18:18:21.439Z,17.61
2023-05-19T18:21:14.422Z,17.66
2023-05-19T18:24:03.097Z,17.46
2023-05-19T18:26:56.552Z,17.57
2023-05-19T18:29:44.226Z,17.28
2023-05-19T18:32:32.101Z,17.43
2023-05-19T18:35:22.184Z,17.47
2023-05-19T18:38:11.810Z,17.68
2023-05-19T18:41:00.847Z,17.62
2023-05-19T18:43:50.101Z,17.33
2023-05-19T18:46:37.786Z,17.41
2023-05-19T18:49:25.531Z,17.75
2023-05-19T18:52:13.346Z,17.56
2023-05-19T18:55:01.334Z,17.52
2023-05-19T18:57:49.075Z,17.50
2023-05-19T19:00:38.233Z,17.62
2023-05-19T19:03:26.641Z,17.48
2023-05-19T19:06:17.029Z,17.55
2023-05-19T19:09:04.959Z,17.36
2023-05-19T19:11:52.678Z,17.49
2023-05-19T19:14:40.436Z,17.39
2023-05-19T19:17:30.925Z,17.36
2023-05-19T19:20:18.953Z,17.23
2023-05-19T19:23:08.563Z,17.08
2023-05-19T19:25:57.162Z,17.04
2023-05-19T19:28:45.410Z,16.97
2023-05-19T19:31:36.199Z,17.28
2023-05-19T19:34:25.361Z,17.10
2023-05-19T19:37:14.514Z,16.90
2023-05-19T19:40:02.346Z,16.91
2023-05-19T19:42:50.108Z,16.95
2023-05-19T19:45:39.221Z,16.69
2023-05-19T19:48:26.910Z,16.95
2023-05-19T19:51:16.151Z,16.53
2023-05-19T19:54:03.835Z,16.91
2023-05-19T19:56:51.576Z,16.70
2023-05-19T19:59:46.038Z,16.66
2023-05-19T20:02:33.665Z,16.66
2023-05-19T20:05:21.611Z,16.70
2023-05-19T20:08:10.786Z,16.79
2023-05-19T20:10:58.579Z,16.70
2023-05-19T20:13:46.455Z,16.76
2023-05-19T20:16:34.372Z,16.78
2023-05-19T20:19:22.168Z,16.65
2023-05-19T20:22:09.930Z,16.90
2023-05-19T20:24:59.273Z,16.78
2023-05-19T20:27:47.226Z,16.83
2023-05-19T20:30:35.076Z,16.96
2023-05-19T20:33:23.026Z,16.54
2023-05-19T20:36:11.051Z,16.71
2023-05-19T20:38:58.829Z,16.69
2023-05-19T20:41:47.974Z,16.57
2023-05-19T20:44:35.789Z,16.79
2023-05-19T20:47:23.940Z,16.63
2023-05-19T20:50:11.933Z,16.60
2023-05-19T20:52:59.693Z,16.58
2023-05-19T20:55:47.437Z,16.61
2023-05-19T20:58:36.550Z,16.40
2023-05-19T21:01:25.480Z,16.40
2023-05-19T21:04:13.377Z,16.39
2023-05-19T21:07:01.384Z,16.37
2023-05-19T21:09:51.445Z,16.38
2023-05-19T21:12:39.287Z,16.53
2023-05-19T21:15:28.434Z,16.44
2023-05-19T21:18:16.238Z,16.47
2023-05-19T21:21:04.883Z,16.31
2023-05-19T21:23:52.564Z,16.43
2023-05-19T21:26:41.072Z,16.29
2023-05-19T21:29:28.902Z,16.45
2023-05-19T21:32:18.079Z,16.32
2023-05-19T21:35:07.253Z,16.31
2023-05-19T21:37:55.822Z,16.38
2023-05-19T21:40:43.611Z,16.36
2023-05-19T21:43:31.358Z,16.24
2023-05-19T21:46:19.144Z,15.80
2023-05-19T21:49:08.707Z,16.11
2023-05-19T21:51:56.469Z,15.98
2023-05-19T21:54:44.212Z,16.21
2023-05-19T21:57:32.287Z,16.08
2023-05-19T22:00:20.127Z,15.99
2023-05-19T22:03:08.205Z,15.94
2023-05-19T22:05:57.448Z,16.03
2023-05-19T22:08:45.218Z,16.02
2023-05-19T22:11:33.118Z,15.76
2023-05-19T22:14:20.821Z,16.07
2023-05-19T22:17:08.608Z,16.14
2023-05-19T22:19:56.339Z,16.06
2023-05-19T22:22:45.653Z,15.89
2023-05-19T22:25:33.559Z,15.87
2023-05-19T22:28:21.292Z,15.86
2023-05-19T22:31:09.100Z,15.82
2023-05-19T22:33:56.857Z,15.74
2023-05-19T22:36:46.047Z,15.70
2023-05-19T22:39:35.204Z,15.80
2023-05-19T22:42:23.025Z,15.80
2023-05-19T22:45:11.612Z,15.69
2023-05-19T22:47:59.458Z,15.63
2023-05-19T22:50:47.559Z,15.77
2023-05-19T22:53:35.326Z,15.74
2023-05-19T22:56:24.425Z,15.63
2023-05-19T22:59:12.608Z,15.67
2023-05-19T23:02:00.310Z,15.72
2023-05-19T23:04:48.036Z,15.73
2023-05-19T23:07:35.791Z,15.78
2023-05-19T23:10:23.850Z,15.77
2023-05-19T23:13:12.925Z,15.75
2023-05-19T23:16:00.848Z,15.86
2023-05-19T23:18:48.666Z,15.81
2023-05-19T23:21:36.445Z,15.74
2023-05-19T23:24:24.181Z,15.70
2023-05-19T23:27:11.920Z,15.63
2023-05-19T23:30:01.369Z,15.76
2023-05-19T23:32:49.164Z,15.64
2023-05-19T23:35:36.875Z,15.67
2023-05-19T23:38:24.570Z,15.57
2023-05-19T23:41:12.321Z,15.67
2023-05-19T23:44:00.321Z,15.49
2023-05-19T23:46:49.539Z,15.63
2023-05-19T23:49:37.299Z,15.58
2023-05-19T23:52:25.056Z,15.50
2023-05-19T23:55:13.722Z,15.50
2023-05-19T23:58:02.024Z,15.59
